sensor_id;sensor_type;location;lat;lon;timestamp;P1;durP1;ratioP1;P2;durP2;ratioP2
45382;SDS011;42455;51.660;5.824;2023-08-21T00:00:45;6.0;;;3.0;;
45382;SDS011;42455;51.660;5.824;2023-08-21T00:05:52;5.0;;;3.0;;
45382;SDS011;42455;51.660;5.824;2023-08-21T00:10:58;6.0;;;3.0;;
45382;SDS011;42455;51.660;5.824;2023-08-21T00:16:04;4.0;;;3.0;;
45382;SDS011;42455;51.660;5.824;2023-08-21T00:21:10;4.0;;;3.0;;
45382;SDS011;42455;51.660;5.824;2023-08-21T00:26:16;5.0;;;3.0;;
45382;SDS011;42455;51.660;5.824;2023-08-21T00:31:23;5.0;;;3.0;;
45382;SDS011;42455;51.660;5.824;2023-08-21T00:36:29;4.0;;;3.0;;
45382;SDS011;42455;51.660;5.824;2023-08-21T00:41:35;3.0;;;3.0;;
45382;SDS011;42455;51.660;5.824;2023-08-21T00:46:41;5.0;;;3.0;;
45382;SDS011;42455;51.660;5.824;2023-08-21T00:51:48;4.0;;;3.0;;
45382;SDS011;42455;51.660;5.824;2023-08-21T00:56:54;4.0;;;3.0;;
45382;SDS011;42455;51.660;5.824;2023-08-21T01:02:00;5.0;;;3.0;;
45382;SDS011;42455;51.660;5.824;2023-08-21T01:07:06;6.0;;;3.0;;
45382;SDS011;42455;51.660;5.824;2023-08-21T01:13:44;6.0;;;4.0;;
45382;SDS011;42455;51.660;5.824;2023-08-21T01:17:19;5.0;;;4.0;;
45382;SDS011;42455;51.660;5.824;2023-08-21T01:22:25;5.0;;;3.0;;
45382;SDS011;42455;51.660;5.824;2023-08-21T01:27:31;6.0;;;4.0;;
45382;SDS011;42455;51.660;5.824;2023-08-21T01:33:16;4.0;;;3.0;;
45382;SDS011;42455;51.660;5.824;2023-08-21T01:37:43;5.0;;;4.0;;
45382;SDS011;42455;51.660;5.824;2023-08-21T01:42:50;6.0;;;4.0;;
45382;SDS011;42455;51.660;5.824;2023-08-21T01:47:56;5.0;;;4.0;;
45382;SDS011;42455;51.660;5.824;2023-08-21T01:53:02;7.0;;;4.0;;
45382;SDS011;42455;51.660;5.824;2023-08-21T01:58:08;7.0;;;4.0;;
45382;SDS011;42455;51.660;5.824;2023-08-21T02:03:14;5.0;;;4.0;;
45382;SDS011;42455;51.660;5.824;2023-08-21T02:08:20;4.0;;;3.0;;
45382;SDS011;42455;51.660;5.824;2023-08-21T02:13:27;5.0;;;4.0;;
45382;SDS011;42455;51.660;5.824;2023-08-21T02:18:33;5.0;;;4.0;;
45382;SDS011;42455;51.660;5.824;2023-08-21T02:23:39;4.0;;;4.0;;
45382;SDS011;42455;51.660;5.824;2023-08-21T02:28:45;5.0;;;4.0;;
45382;SDS011;42455;51.660;5.824;2023-08-21T02:33:52;5.0;;;4.0;;
45382;SDS011;42455;51.660;5.824;2023-08-21T02:38:58;6.0;;;4.0;;
45382;SDS011;42455;51.660;5.824;2023-08-21T02:44:04;6.0;;;4.0;;
45382;SDS011;42455;51.660;5.824;2023-08-21T02:49:10;4.5;;;4.0;;
45382;SDS011;42455;51.660;5.824;2023-08-21T02:54:16;5.5;;;4.0;;
45382;SDS011;42455;51.660;5.824;2023-08-21T02:59:23;7.0;;;4.0;;
45382;SDS011;42455;51.660;5.824;2023-08-21T03:04:29;4.0;;;4.0;;
45382;SDS011;42455;51.660;5.824;2023-08-21T03:09:35;5.0;;;4.0;;
45382;SDS011;42455;51.660;5.824;2023-08-21T03:14:41;6.0;;;4.0;;
45382;SDS011;42455;51.660;5.824;2023-08-21T03:19:47;5.0;;;4.0;;
45382;SDS011;42455;51.660;5.824;2023-08-21T03:24:54;5.0;;;4.0;;
45382;SDS011;42455;51.660;5.824;2023-08-21T03:30:00;6.0;;;4.0;;
45382;SDS011;42455;51.660;5.824;2023-08-21T03:35:06;6.5;;;4.0;;
45382;SDS011;42455;51.660;5.824;2023-08-21T03:40:12;4.0;;;4.0;;
45382;SDS011;42455;51.660;5.824;2023-08-21T03:45:18;5.0;;;4.0;;
45382;SDS011;42455;51.660;5.824;2023-08-21T03:50:25;5.5;;;4.0;;
45382;SDS011;42455;51.660;5.824;2023-08-21T03:55:31;6.0;;;4.0;;
45382;SDS011;42455;51.660;5.824;2023-08-21T04:00:37;5.0;;;4.0;;
45382;SDS011;42455;51.660;5.824;2023-08-21T04:05:43;6.0;;;4.0;;
45382;SDS011;42455;51.660;5.824;2023-08-21T04:10:50;6.0;;;4.0;;
45382;SDS011;42455;51.660;5.824;2023-08-21T04:15:56;6.5;;;5.0;;
45382;SDS011;42455;51.660;5.824;2023-08-21T04:21:01;5.0;;;5.0;;
45382;SDS011;42455;51.660;5.824;2023-08-21T04:26:07;7.0;;;4.0;;
45382;SDS011;42455;51.660;5.824;2023-08-21T04:31:13;6.0;;;5.0;;
45382;SDS011;42455;51.660;5.824;2023-08-21T04:36:20;5.0;;;4.0;;
45382;SDS011;42455;51.660;5.824;2023-08-21T04:41:26;6.0;;;5.0;;
45382;SDS011;42455;51.660;5.824;2023-08-21T04:46:32;6.0;;;5.0;;
45382;SDS011;42455;51.660;5.824;2023-08-21T04:51:38;6.0;;;5.0;;
45382;SDS011;42455;51.660;5.824;2023-08-21T04:56:44;6.0;;;5.0;;
45382;SDS011;42455;51.660;5.824;2023-08-21T05:01:51;7.0;;;5.0;;
45382;SDS011;42455;51.660;5.824;2023-08-21T05:06:57;7.5;;;5.0;;
45382;SDS011;42455;51.660;5.824;2023-08-21T05:12:03;6.0;;;5.0;;
45382;SDS011;42455;51.660;5.824;2023-08-21T05:17:09;7.0;;;5.0;;
45382;SDS011;42455;51.660;5.824;2023-08-21T05:22:15;7.0;;;5.0;;
45382;SDS011;42455;51.660;5.824;2023-08-21T05:27:22;7.0;;;5.0;;
45382;SDS011;42455;51.660;5.824;2023-08-21T05:32:28;7.0;;;5.0;;
45382;SDS011;42455;51.660;5.824;2023-08-21T05:37:34;6.0;;;5.0;;
45382;SDS011;42455;51.660;5.824;2023-08-21T05:42:40;8.0;;;5.0;;
45382;SDS011;42455;51.660;5.824;2023-08-21T05:47:47;7.0;;;5.0;;
45382;SDS011;42455;51.660;5.824;2023-08-21T05:52:53;7.0;;;5.0;;
45382;SDS011;42455;51.660;5.824;2023-08-21T05:57:59;7.0;;;5.0;;
45382;SDS011;42455;51.660;5.824;2023-08-21T06:03:05;6.0;;;5.0;;
45382;SDS011;42455;51.660;5.824;2023-08-21T06:08:11;7.0;;;5.0;;
45382;SDS011;42455;51.660;5.824;2023-08-21T06:13:18;8.0;;;5.0;;
45382;SDS011;42455;51.660;5.824;2023-08-21T06:18:24;7.0;;;5.0;;
45382;SDS011;42455;51.660;5.824;2023-08-21T06:23:30;7.0;;;5.0;;
45382;SDS011;42455;51.660;5.824;2023-08-21T06:28:36;7.0;;;5.0;;
45382;SDS011;42455;51.660;5.824;2023-08-21T06:33:42;7.0;;;5.0;;
45382;SDS011;42455;51.660;5.824;2023-08-21T06:38:49;7.0;;;6.0;;
45382;SDS011;42455;51.660;5.824;2023-08-21T06:43:55;8.0;;;5.0;;
45382;SDS011;42455;51.660;5.824;2023-08-21T06:49:01;8.0;;;5.0;;
45382;SDS011;42455;51.660;5.824;2023-08-21T06:54:07;7.5;;;6.0;;
45382;SDS011;42455;51.660;5.824;2023-08-21T06:59:13;9.0;;;6.0;;
45382;SDS011;42455;51.660;5.824;2023-08-21T07:04:20;8.0;;;6.0;;
45382;SDS011;42455;51.660;5.824;2023-08-21T07:09:26;8.0;;;5.0;;
45382;SDS011;42455;51.660;5.824;2023-08-21T07:14:32;7.0;;;5.0;;
45382;SDS011;42455;51.660;5.824;2023-08-21T07:19:38;9.0;;;5.0;;
45382;SDS011;42455;51.660;5.824;2023-08-21T07:24:44;8.0;;;4.5;;
45382;SDS011;42455;51.660;5.824;2023-08-21T07:29:51;5.0;;;4.0;;
45382;SDS011;42455;51.660;5.824;2023-08-21T07:34:57;5.0;;;3.0;;
45382;SDS011;42455;51.660;5.824;2023-08-21T07:40:04;6.0;;;3.0;;
45382;SDS011;42455;51.660;5.824;2023-08-21T07:45:09;4.0;;;2.0;;
45382;SDS011;42455;51.660;5.824;2023-08-21T07:50:15;7.0;;;3.0;;
45382;SDS011;42455;51.660;5.824;2023-08-21T07:55:22;5.0;;;3.0;;
45382;SDS011;42455;51.660;5.824;2023-08-21T08:00:28;5.0;;;2.0;;
45382;SDS011;42455;51.660;5.824;2023-08-21T08:05:34;5.0;;;2.0;;
45382;SDS011;42455;51.660;5.824;2023-08-21T08:10:40;6.0;;;1.0;;
45382;SDS011;42455;51.660;5.824;2023-08-21T08:15:47;5.0;;;1.0;;
45382;SDS011;42455;51.660;5.824;2023-08-21T08:20:53;7.0;;;1.5;;
45382;SDS011;42455;51.660;5.824;2023-08-21T08:25:59;4.0;;;1.0;;
45382;SDS011;42455;51.660;5.824;2023-08-21T08:31:05;6.0;;;2.0;;
45382;SDS011;42455;51.660;5.824;2023-08-21T08:36:11;6.0;;;2.0;;
45382;SDS011;42455;51.660;5.824;2023-08-21T08:41:29;4.0;;;1.0;;
45382;SDS011;42455;51.660;5.824;2023-08-21T08:46:24;4.5;;;2.0;;
45382;SDS011;42455;51.660;5.824;2023-08-21T08:51:30;4.0;;;1.0;;
45382;SDS011;42455;51.660;5.824;2023-08-21T08:56:36;5.0;;;2.0;;
45382;SDS011;42455;51.660;5.824;2023-08-21T09:01:43;5.0;;;1.0;;
45382;SDS011;42455;51.660;5.824;2023-08-21T09:06:49;4.0;;;2.0;;
45382;SDS011;42455;51.660;5.824;2023-08-21T09:11:55;6.0;;;2.0;;
45382;SDS011;42455;51.660;5.824;2023-08-21T09:17:01;4.0;;;1.0;;
45382;SDS011;42455;51.660;5.824;2023-08-21T09:22:09;3.0;;;1.0;;
45382;SDS011;42455;51.660;5.824;2023-08-21T09:27:16;5.0;;;1.0;;
45382;SDS011;42455;51.660;5.824;2023-08-21T09:32:20;3.0;;;1.0;;
45382;SDS011;42455;51.660;5.824;2023-08-21T09:37:27;5.0;;;1.0;;
45382;SDS011;42455;51.660;5.824;2023-08-21T09:42:33;5.5;;;1.0;;
45382;SDS011;42455;51.660;5.824;2023-08-21T09:47:39;4.0;;;1.0;;
45382;SDS011;42455;51.660;5.824;2023-08-21T09:52:45;3.0;;;1.0;;
45382;SDS011;42455;51.660;5.824;2023-08-21T09:57:51;5.0;;;2.0;;
45382;SDS011;42455;51.660;5.824;2023-08-21T10:03:03;5.0;;;1.0;;
45382;SDS011;42455;51.660;5.824;2023-08-21T10:08:05;4.0;;;1.0;;
45382;SDS011;42455;51.660;5.824;2023-08-21T10:13:09;5.0;;;1.0;;
45382;SDS011;42455;51.660;5.824;2023-08-21T10:18:33;5.0;;;2.0;;
45382;SDS011;42455;51.660;5.824;2023-08-21T10:23:26;4.0;;;2.0;;
45382;SDS011;42455;51.660;5.824;2023-08-21T10:28:27;5.0;;;1.0;;
45382;SDS011;42455;51.660;5.824;2023-08-21T10:33:46;6.0;;;1.0;;
45382;SDS011;42455;51.660;5.824;2023-08-21T10:39:00;5.0;;;1.5;;
45382;SDS011;42455;51.660;5.824;2023-08-21T10:43:45;4.0;;;1.0;;
45382;SDS011;42455;51.660;5.824;2023-08-21T10:48:52;4.0;;;2.0;;
45382;SDS011;42455;51.660;5.824;2023-08-21T10:54:10;3.0;;;1.0;;
45382;SDS011;42455;51.660;5.824;2023-08-21T10:59:04;5.0;;;1.0;;
45382;SDS011;42455;51.660;5.824;2023-08-21T11:04:10;1.0;;;1.0;;
45382;SDS011;42455;51.660;5.824;2023-08-21T11:09:16;3.0;;;1.0;;
45382;SDS011;42455;51.660;5.824;2023-08-21T11:14:24;3.0;;;1.0;;
45382;SDS011;42455;51.660;5.824;2023-08-21T11:19:30;3.0;;;1.0;;
45382;SDS011;42455;51.660;5.824;2023-08-21T11:24:43;4.0;;;1.0;;
45382;SDS011;42455;51.660;5.824;2023-08-21T11:29:44;3.0;;;1.0;;
45382;SDS011;42455;51.660;5.824;2023-08-21T11:34:49;3.0;;;1.0;;
45382;SDS011;42455;51.660;5.824;2023-08-21T11:39:55;3.0;;;1.0;;
45382;SDS011;42455;51.660;5.824;2023-08-21T11:45:01;4.0;;;1.0;;
45382;SDS011;42455;51.660;5.824;2023-08-21T11:50:07;3.0;;;1.0;;
45382;SDS011;42455;51.660;5.824;2023-08-21T11:55:12;4.0;;;1.0;;
45382;SDS011;42455;51.660;5.824;2023-08-21T12:00:26;3.0;;;1.0;;
45382;SDS011;42455;51.660;5.824;2023-08-21T12:05:25;5.0;;;1.0;;
45382;SDS011;42455;51.660;5.824;2023-08-21T12:10:31;4.0;;;1.0;;
45382;SDS011;42455;51.660;5.824;2023-08-21T12:15:37;4.0;;;1.0;;
45382;SDS011;42455;51.660;5.824;2023-08-21T12:20:43;4.0;;;1.0;;
45382;SDS011;42455;51.660;5.824;2023-08-21T12:25:50;4.0;;;1.0;;
45382;SDS011;42455;51.660;5.824;2023-08-21T12:30:56;3.0;;;1.0;;
45382;SDS011;42455;51.660;5.824;2023-08-21T12:36:02;4.0;;;2.0;;
45382;SDS011;42455;51.660;5.824;2023-08-21T12:41:08;3.0;;;1.0;;
45382;SDS011;42455;51.660;5.824;2023-08-21T12:46:15;4.0;;;1.0;;
45382;SDS011;42455;51.660;5.824;2023-08-21T12:51:21;4.0;;;1.0;;
45382;SDS011;42455;51.660;5.824;2023-08-21T12:56:27;3.0;;;1.0;;
45382;SDS011;42455;51.660;5.824;2023-08-21T13:01:33;5.0;;;1.0;;
45382;SDS011;42455;51.660;5.824;2023-08-21T13:06:39;4.0;;;2.0;;
45382;SDS011;42455;51.660;5.824;2023-08-21T13:11:46;3.0;;;1.0;;
45382;SDS011;42455;51.660;5.824;2023-08-21T13:16:52;4.0;;;1.0;;
45382;SDS011;42455;51.660;5.824;2023-08-21T13:21:58;5.0;;;2.0;;
45382;SDS011;42455;51.660;5.824;2023-08-21T13:27:04;3.0;;;1.0;;
45382;SDS011;42455;51.660;5.824;2023-08-21T13:32:10;3.0;;;1.0;;
45382;SDS011;42455;51.660;5.824;2023-08-21T13:37:17;3.0;;;1.0;;
45382;SDS011;42455;51.660;5.824;2023-08-21T13:42:23;4.0;;;1.0;;
45382;SDS011;42455;51.660;5.824;2023-08-21T13:47:29;4.0;;;2.0;;
45382;SDS011;42455;51.660;5.824;2023-08-21T13:52:36;4.0;;;1.0;;
45382;SDS011;42455;51.660;5.824;2023-08-21T13:57:42;4.0;;;2.0;;
45382;SDS011;42455;51.660;5.824;2023-08-21T14:02:48;4.0;;;2.0;;
45382;SDS011;42455;51.660;5.824;2023-08-21T14:07:54;3.0;;;1.0;;
45382;SDS011;42455;51.660;5.824;2023-08-21T14:13:01;3.0;;;1.0;;
45382;SDS011;42455;51.660;5.824;2023-08-21T14:18:06;4.0;;;1.0;;
45382;SDS011;42455;51.660;5.824;2023-08-21T14:23:12;3.5;;;1.0;;
45382;SDS011;42455;51.660;5.824;2023-08-21T14:28:19;3.0;;;1.0;;
45382;SDS011;42455;51.660;5.824;2023-08-21T14:33:25;3.0;;;1.0;;
45382;SDS011;42455;51.660;5.824;2023-08-21T14:38:31;3.0;;;1.0;;
45382;SDS011;42455;51.660;5.824;2023-08-21T14:43:37;3.0;;;1.0;;
45382;SDS011;42455;51.660;5.824;2023-08-21T14:48:44;2.0;;;1.0;;
45382;SDS011;42455;51.660;5.824;2023-08-21T14:53:50;4.0;;;1.0;;
45382;SDS011;42455;51.660;5.824;2023-08-21T14:58:56;2.0;;;1.0;;
45382;SDS011;42455;51.660;5.824;2023-08-21T15:04:02;3.0;;;1.0;;
45382;SDS011;42455;51.660;5.824;2023-08-21T15:09:08;3.0;;;1.0;;
45382;SDS011;42455;51.660;5.824;2023-08-21T15:14:15;3.0;;;1.0;;
45382;SDS011;42455;51.660;5.824;2023-08-21T15:19:21;4.0;;;1.0;;
45382;SDS011;42455;51.660;5.824;2023-08-21T15:24:27;3.0;;;1.0;;
45382;SDS011;42455;51.660;5.824;2023-08-21T15:29:33;2.0;;;1.0;;
45382;SDS011;42455;51.660;5.824;2023-08-21T15:34:40;2.0;;;1.0;;
45382;SDS011;42455;51.660;5.824;2023-08-21T15:39:46;2.0;;;1.0;;
45382;SDS011;42455;51.660;5.824;2023-08-21T15:44:52;3.0;;;1.0;;
45382;SDS011;42455;51.660;5.824;2023-08-21T15:49:58;2.0;;;1.0;;
45382;SDS011;42455;51.660;5.824;2023-08-21T15:55:03;2.0;;;1.0;;
45382;SDS011;42455;51.660;5.824;2023-08-21T16:00:10;3.0;;;1.0;;
45382;SDS011;42455;51.660;5.824;2023-08-21T16:05:16;3.0;;;1.0;;
45382;SDS011;42455;51.660;5.824;2023-08-21T16:10:22;3.0;;;1.0;;
45382;SDS011;42455;51.660;5.824;2023-08-21T16:15:28;3.0;;;1.0;;
45382;SDS011;42455;51.660;5.824;2023-08-21T16:20:34;8.0;;;6.0;;
45382;SDS011;42455;51.660;5.824;2023-08-21T16:25:41;2.0;;;1.0;;
45382;SDS011;42455;51.660;5.824;2023-08-21T16:30:47;2.0;;;1.0;;
45382;SDS011;42455;51.660;5.824;2023-08-21T16:35:53;2.0;;;0.0;;
45382;SDS011;42455;51.660;5.824;2023-08-21T16:40:59;2.0;;;0.0;;
45382;SDS011;42455;51.660;5.824;2023-08-21T16:46:05;1.0;;;0.0;;
45382;SDS011;42455;51.660;5.824;2023-08-21T16:51:12;2.0;;;0.0;;
45382;SDS011;42455;51.660;5.824;2023-08-21T16:56:18;1.0;;;0.0;;
45382;SDS011;42455;51.660;5.824;2023-08-21T17:01:24;2.0;;;1.0;;
45382;SDS011;42455;51.660;5.824;2023-08-21T17:06:30;2.0;;;1.0;;
45382;SDS011;42455;51.660;5.824;2023-08-21T17:11:36;2.0;;;1.0;;
45382;SDS011;42455;51.660;5.824;2023-08-21T17:16:43;4.0;;;2.0;;
45382;SDS011;42455;51.660;5.824;2023-08-21T17:21:49;3.0;;;1.0;;
45382;SDS011;42455;51.660;5.824;2023-08-21T17:26:55;2.0;;;1.0;;
45382;SDS011;42455;51.660;5.824;2023-08-21T17:32:08;1.0;;;0.0;;
45382;SDS011;42455;51.660;5.824;2023-08-21T17:37:08;3.0;;;1.0;;
45382;SDS011;42455;51.660;5.824;2023-08-21T17:42:14;2.0;;;1.0;;
45382;SDS011;42455;51.660;5.824;2023-08-21T17:47:20;4.0;;;1.0;;
45382;SDS011;42455;51.660;5.824;2023-08-21T17:52:26;2.0;;;0.0;;
45382;SDS011;42455;51.660;5.824;2023-08-21T17:57:32;3.0;;;1.0;;
45382;SDS011;42455;51.660;5.824;2023-08-21T18:02:39;4.0;;;1.0;;
45382;SDS011;42455;51.660;5.824;2023-08-21T18:07:45;3.0;;;1.0;;
45382;SDS011;42455;51.660;5.824;2023-08-21T18:12:51;3.0;;;1.0;;
45382;SDS011;42455;51.660;5.824;2023-08-21T18:17:57;2.0;;;1.0;;
45382;SDS011;42455;51.660;5.824;2023-08-21T18:23:03;3.0;;;1.0;;
45382;SDS011;42455;51.660;5.824;2023-08-21T18:28:10;2.0;;;1.0;;
45382;SDS011;42455;51.660;5.824;2023-08-21T18:33:16;2.0;;;1.0;;
45382;SDS011;42455;51.660;5.824;2023-08-21T18:38:22;2.0;;;1.0;;
45382;SDS011;42455;51.660;5.824;2023-08-21T18:43:28;3.0;;;1.0;;
45382;SDS011;42455;51.660;5.824;2023-08-21T18:48:35;2.0;;;1.0;;
45382;SDS011;42455;51.660;5.824;2023-08-21T18:53:41;2.0;;;1.0;;
45382;SDS011;42455;51.660;5.824;2023-08-21T18:58:47;2.0;;;1.0;;
45382;SDS011;42455;51.660;5.824;2023-08-21T19:03:53;2.0;;;1.0;;
45382;SDS011;42455;51.660;5.824;2023-08-21T19:09:00;2.0;;;1.0;;
45382;SDS011;42455;51.660;5.824;2023-08-21T19:14:06;2.0;;;1.0;;
45382;SDS011;42455;51.660;5.824;2023-08-21T19:19:12;3.0;;;1.0;;
45382;SDS011;42455;51.660;5.824;2023-08-21T19:24:18;2.0;;;1.0;;
45382;SDS011;42455;51.660;5.824;2023-08-21T19:29:24;3.0;;;2.0;;
45382;SDS011;42455;51.660;5.824;2023-08-21T19:34:31;3.0;;;2.0;;
45382;SDS011;42455;51.660;5.824;2023-08-21T19:39:37;3.0;;;2.0;;
45382;SDS011;42455;51.660;5.824;2023-08-21T19:44:43;3.0;;;2.0;;
45382;SDS011;42455;51.660;5.824;2023-08-21T19:49:49;4.0;;;2.0;;
45382;SDS011;42455;51.660;5.824;2023-08-21T19:54:55;3.0;;;2.0;;
45382;SDS011;42455;51.660;5.824;2023-08-21T20:00:02;3.5;;;2.0;;
45382;SDS011;42455;51.660;5.824;2023-08-21T20:05:08;2.0;;;2.0;;
45382;SDS011;42455;51.660;5.824;2023-08-21T20:10:14;4.0;;;2.0;;
45382;SDS011;42455;51.660;5.824;2023-08-21T20:15:20;3.0;;;2.0;;
45382;SDS011;42455;51.660;5.824;2023-08-21T20:20:27;3.0;;;2.0;;
45382;SDS011;42455;51.660;5.824;2023-08-21T20:25:33;3.0;;;2.0;;
45382;SDS011;42455;51.660;5.824;2023-08-21T20:30:39;4.0;;;2.0;;
45382;SDS011;42455;51.660;5.824;2023-08-21T20:35:45;4.0;;;2.5;;
45382;SDS011;42455;51.660;5.824;2023-08-21T20:40:52;4.0;;;3.0;;
45382;SDS011;42455;51.660;5.824;2023-08-21T20:46:00;4.0;;;3.0;;
45382;SDS011;42455;51.660;5.824;2023-08-21T20:51:04;5.0;;;3.0;;
45382;SDS011;42455;51.660;5.824;2023-08-21T20:56:10;5.0;;;3.0;;
45382;SDS011;42455;51.660;5.824;2023-08-21T21:01:16;5.0;;;3.0;;
45382;SDS011;42455;51.660;5.824;2023-08-21T21:06:23;4.0;;;3.0;;
45382;SDS011;42455;51.660;5.824;2023-08-21T21:11:29;5.0;;;3.5;;
45382;SDS011;42455;51.660;5.824;2023-08-21T21:16:35;5.0;;;3.0;;
45382;SDS011;42455;51.660;5.824;2023-08-21T21:21:41;4.0;;;3.0;;
45382;SDS011;42455;51.660;5.824;2023-08-21T21:26:46;6.0;;;3.5;;
45382;SDS011;42455;51.660;5.824;2023-08-21T21:31:52;6.0;;;3.0;;
45382;SDS011;42455;51.660;5.824;2023-08-21T21:36:59;4.0;;;3.0;;
45382;SDS011;42455;51.660;5.824;2023-08-21T21:42:05;4.0;;;4.0;;
45382;SDS011;42455;51.660;5.824;2023-08-21T21:47:11;4.0;;;4.0;;
45382;SDS011;42455;51.660;5.824;2023-08-21T21:52:17;5.0;;;4.0;;
45382;SDS011;42455;51.660;5.824;2023-08-21T21:57:24;6.0;;;4.0;;
45382;SDS011;42455;51.660;5.824;2023-08-21T22:02:30;5.0;;;4.0;;
45382;SDS011;42455;51.660;5.824;2023-08-21T22:07:36;5.0;;;4.0;;
45382;SDS011;42455;51.660;5.824;2023-08-21T22:12:42;5.0;;;4.0;;
45382;SDS011;42455;51.660;5.824;2023-08-21T22:17:48;5.0;;;4.0;;
45382;SDS011;42455;51.660;5.824;2023-08-21T22:22:55;5.0;;;4.0;;
45382;SDS011;42455;51.660;5.824;2023-08-21T22:28:01;4.0;;;4.0;;
45382;SDS011;42455;51.660;5.824;2023-08-21T22:33:07;5.0;;;4.0;;
45382;SDS011;42455;51.660;5.824;2023-08-21T22:38:13;5.0;;;5.0;;
45382;SDS011;42455;51.660;5.824;2023-08-21T22:43:19;5.0;;;5.0;;
45382;SDS011;42455;51.660;5.824;2023-08-21T22:48:26;6.0;;;5.0;;
45382;SDS011;42455;51.660;5.824;2023-08-21T22:53:32;5.0;;;5.0;;
45382;SDS011;42455;51.660;5.824;2023-08-21T22:58:38;5.0;;;5.0;;
45382;SDS011;42455;51.660;5.824;2023-08-21T23:03:45;6.0;;;5.0;;
45382;SDS011;42455;51.660;5.824;2023-08-21T23:08:50;5.0;;;5.0;;
45382;SDS011;42455;51.660;5.824;2023-08-21T23:13:57;6.0;;;5.0;;
45382;SDS011;42455;51.660;5.824;2023-08-21T23:19:03;6.0;;;5.0;;
45382;SDS011;42455;51.660;5.824;2023-08-21T23:24:09;6.0;;;5.0;;
45382;SDS011;42455;51.660;5.824;2023-08-21T23:29:15;6.0;;;5.0;;
45382;SDS011;42455;51.660;5.824;2023-08-21T23:34:21;6.0;;;5.0;;
45382;SDS011;42455;51.660;5.824;2023-08-21T23:39:28;6.0;;;5.0;;
45382;SDS011;42455;51.660;5.824;2023-08-21T23:44:34;6.0;;;5.0;;
45382;SDS011;42455;51.660;5.824;2023-08-21T23:49:40;7.0;;;5.0;;
45382;SDS011;42455;51.660;5.824;2023-08-21T23:54:46;7.0;;;6.0;;
45382;SDS011;42455;51.660;5.824;2023-08-21T23:59:53;7.0;;;5.5;;
